sensor_id;sensor_type;location;lat;lon;timestamp;P1;durP1;ratioP1;P2;durP2;ratioP2
1651;SDS011;823;49.028;8.454;2022-08-01T00:04:19;4.37;;;2.33;;
1651;SDS011;823;49.028;8.454;2022-08-01T00:09:20;2.90;;;1.80;;
1651;SDS011;823;49.028;8.454;2022-08-01T00:14:20;3.03;;;2.10;;
1651;SDS011;823;49.028;8.454;2022-08-01T00:19:21;5.10;;;2.60;;
1651;SDS011;823;49.028;8.454;2022-08-01T00:24:21;3.33;;;2.20;;
1651;SDS011;823;49.028;8.454;2022-08-01T00:29:22;3.10;;;2.13;;
1651;SDS011;823;49.028;8.454;2022-08-01T00:34:22;2.75;;;1.75;;
1651;SDS011;823;49.028;8.454;2022-08-01T00:39:23;4.23;;;2.20;;
1651;SDS011;823;49.028;8.454;2022-08-01T00:44:23;5.37;;;2.43;;
1651;SDS011;823;49.028;8.454;2022-08-01T00:49:23;2.50;;;2.20;;
1651;SDS011;823;49.028;8.454;2022-08-01T00:54:24;3.67;;;2.17;;
1651;SDS011;823;49.028;8.454;2022-08-01T00:59:26;3.33;;;1.83;;
1651;SDS011;823;49.028;8.454;2022-08-01T01:04:26;5.73;;;2.47;;
1651;SDS011;823;49.028;8.454;2022-08-01T01:19:58;2.90;;;2.40;;
1651;SDS011;823;49.028;8.454;2022-08-01T01:25:17;2.10;;;1.90;;
1651;SDS011;823;49.028;8.454;2022-08-01T01:30:26;3.27;;;2.00;;
1651;SDS011;823;49.028;8.454;2022-08-01T01:35:31;4.20;;;2.40;;
1651;SDS011;823;49.028;8.454;2022-08-01T01:40:35;2.10;;;1.90;;
1651;SDS011;823;49.028;8.454;2022-08-01T01:45:38;3.63;;;2.17;;
1651;SDS011;823;49.028;8.454;2022-08-01T01:50:40;2.70;;;1.93;;
1651;SDS011;823;49.028;8.454;2022-08-01T01:55:43;4.53;;;2.50;;
1651;SDS011;823;49.028;8.454;2022-08-01T02:00:45;4.57;;;2.60;;
1651;SDS011;823;49.028;8.454;2022-08-01T02:05:47;3.10;;;2.00;;
1651;SDS011;823;49.028;8.454;2022-08-01T02:10:50;3.33;;;2.17;;
1651;SDS011;823;49.028;8.454;2022-08-01T02:16:11;5.37;;;2.27;;
1651;SDS011;823;49.028;8.454;2022-08-01T02:21:14;5.17;;;2.23;;
1651;SDS011;823;49.028;8.454;2022-08-01T02:26:18;2.43;;;1.77;;
1651;SDS011;823;49.028;8.454;2022-08-01T02:31:20;2.53;;;1.90;;
1651;SDS011;823;49.028;8.454;2022-08-01T02:36:23;2.90;;;1.90;;
1651;SDS011;823;49.028;8.454;2022-08-01T02:41:26;7.93;;;2.23;;
1651;SDS011;823;49.028;8.454;2022-08-01T02:46:36;4.73;;;2.30;;
1651;SDS011;823;49.028;8.454;2022-08-01T02:51:38;3.00;;;1.73;;
1651;SDS011;823;49.028;8.454;2022-08-01T02:56:40;2.80;;;2.20;;
1651;SDS011;823;49.028;8.454;2022-08-01T03:01:43;3.80;;;2.23;;
1651;SDS011;823;49.028;8.454;2022-08-01T03:06:45;4.13;;;2.03;;
1651;SDS011;823;49.028;8.454;2022-08-01T03:11:47;4.73;;;2.13;;
1651;SDS011;823;49.028;8.454;2022-08-01T03:16:49;2.53;;;2.17;;
1651;SDS011;823;49.028;8.454;2022-08-01T03:21:52;5.87;;;2.60;;
1651;SDS011;823;49.028;8.454;2022-08-01T03:26:54;3.43;;;2.90;;
1651;SDS011;823;49.028;8.454;2022-08-01T03:31:56;3.77;;;2.07;;
1651;SDS011;823;49.028;8.454;2022-08-01T03:37:21;4.53;;;2.90;;
1651;SDS011;823;49.028;8.454;2022-08-01T03:42:27;5.47;;;2.43;;
1651;SDS011;823;49.028;8.454;2022-08-01T03:47:49;7.93;;;3.53;;
1651;SDS011;823;49.028;8.454;2022-08-01T03:52:56;3.43;;;2.50;;
1651;SDS011;823;49.028;8.454;2022-08-01T03:57:58;3.23;;;2.37;;
1651;SDS011;823;49.028;8.454;2022-08-01T04:03:00;4.80;;;2.90;;
1651;SDS011;823;49.028;8.454;2022-08-01T04:08:01;2.83;;;2.10;;
1651;SDS011;823;49.028;8.454;2022-08-01T04:13:02;2.87;;;2.40;;
1651;SDS011;823;49.028;8.454;2022-08-01T04:18:03;7.60;;;2.30;;
1651;SDS011;823;49.028;8.454;2022-08-01T04:23:03;3.50;;;2.50;;
1651;SDS011;823;49.028;8.454;2022-08-01T04:28:03;5.77;;;2.93;;
1651;SDS011;823;49.028;8.454;2022-08-01T04:33:07;9.37;;;2.90;;
1651;SDS011;823;49.028;8.454;2022-08-01T04:38:09;4.07;;;2.70;;
1651;SDS011;823;49.028;8.454;2022-08-01T04:43:13;8.53;;;2.37;;
1651;SDS011;823;49.028;8.454;2022-08-01T04:48:15;3.90;;;2.27;;
1651;SDS011;823;49.028;8.454;2022-08-01T04:53:19;4.40;;;2.83;;
1651;SDS011;823;49.028;8.454;2022-08-01T04:58:22;3.60;;;2.60;;
1651;SDS011;823;49.028;8.454;2022-08-01T05:03:22;9.00;;;2.50;;
1651;SDS011;823;49.028;8.454;2022-08-01T05:08:22;5.47;;;2.93;;
1651;SDS011;823;49.028;8.454;2022-08-01T05:13:23;5.10;;;2.57;;
1651;SDS011;823;49.028;8.454;2022-08-01T05:18:23;4.43;;;2.75;;
1651;SDS011;823;49.028;8.454;2022-08-01T05:23:23;3.50;;;2.43;;
1651;SDS011;823;49.028;8.454;2022-08-01T05:28:24;3.75;;;2.42;;
1651;SDS011;823;49.028;8.454;2022-08-01T05:33:24;5.70;;;4.00;;
1651;SDS011;823;49.028;8.454;2022-08-01T05:38:24;3.70;;;3.03;;
1651;SDS011;823;49.028;8.454;2022-08-01T05:43:25;4.10;;;2.20;;
1651;SDS011;823;49.028;8.454;2022-08-01T05:48:25;3.97;;;2.80;;
1651;SDS011;823;49.028;8.454;2022-08-01T05:53:25;5.73;;;2.70;;
1651;SDS011;823;49.028;8.454;2022-08-01T05:58:26;3.33;;;2.43;;
1651;SDS011;823;49.028;8.454;2022-08-01T06:03:26;6.00;;;3.03;;
1651;SDS011;823;49.028;8.454;2022-08-01T06:08:31;4.03;;;2.70;;
1651;SDS011;823;49.028;8.454;2022-08-01T06:13:31;7.77;;;2.40;;
1651;SDS011;823;49.028;8.454;2022-08-01T06:18:32;3.30;;;2.47;;
1651;SDS011;823;49.028;8.454;2022-08-01T06:23:32;4.83;;;2.50;;
1651;SDS011;823;49.028;8.454;2022-08-01T06:28:33;3.30;;;2.20;;
1651;SDS011;823;49.028;8.454;2022-08-01T06:33:33;6.53;;;2.37;;
1651;SDS011;823;49.028;8.454;2022-08-01T06:38:34;7.00;;;2.20;;
1651;SDS011;823;49.028;8.454;2022-08-01T06:43:34;5.30;;;2.50;;
1651;SDS011;823;49.028;8.454;2022-08-01T06:48:34;4.00;;;2.00;;
1651;SDS011;823;49.028;8.454;2022-08-01T06:53:39;3.23;;;1.93;;
1651;SDS011;823;49.028;8.454;2022-08-01T06:58:39;3.23;;;2.03;;
1651;SDS011;823;49.028;8.454;2022-08-01T07:03:39;7.20;;;2.37;;
1651;SDS011;823;49.028;8.454;2022-08-01T07:08:40;2.50;;;1.77;;
1651;SDS011;823;49.028;8.454;2022-08-01T07:13:40;4.57;;;2.10;;
1651;SDS011;823;49.028;8.454;2022-08-01T07:18:41;6.30;;;2.30;;
1651;SDS011;823;49.028;8.454;2022-08-01T07:23:41;4.10;;;1.63;;
1651;SDS011;823;49.028;8.454;2022-08-01T07:28:42;2.80;;;1.10;;
1651;SDS011;823;49.028;8.454;2022-08-01T07:33:42;3.17;;;1.40;;
1651;SDS011;823;49.028;8.454;2022-08-01T07:38:43;1.53;;;1.10;;
1651;SDS011;823;49.028;8.454;2022-08-01T07:43:44;2.23;;;1.30;;
1651;SDS011;823;49.028;8.454;2022-08-01T07:48:44;2.20;;;1.20;;
1651;SDS011;823;49.028;8.454;2022-08-01T07:53:45;2.50;;;1.40;;
1651;SDS011;823;49.028;8.454;2022-08-01T07:58:45;2.93;;;1.57;;
1651;SDS011;823;49.028;8.454;2022-08-01T08:03:46;2.63;;;1.93;;
1651;SDS011;823;49.028;8.454;2022-08-01T08:08:46;6.23;;;2.23;;
1651;SDS011;823;49.028;8.454;2022-08-01T08:13:47;1.83;;;1.40;;
1651;SDS011;823;49.028;8.454;2022-08-01T08:18:47;2.63;;;2.20;;
1651;SDS011;823;49.028;8.454;2022-08-01T08:23:47;1.98;;;1.17;;
1651;SDS011;823;49.028;8.454;2022-08-01T08:29:06;2.77;;;1.80;;
1651;SDS011;823;49.028;8.454;2022-08-01T08:34:07;3.53;;;1.23;;
1651;SDS011;823;49.028;8.454;2022-08-01T08:39:07;2.47;;;1.10;;
1651;SDS011;823;49.028;8.454;2022-08-01T08:44:08;1.60;;;1.10;;
1651;SDS011;823;49.028;8.454;2022-08-01T08:49:09;1.73;;;1.20;;
1651;SDS011;823;49.028;8.454;2022-08-01T08:54:11;1.40;;;1.10;;
1651;SDS011;823;49.028;8.454;2022-08-01T08:59:14;1.83;;;1.30;;
1651;SDS011;823;49.028;8.454;2022-08-01T09:04:15;3.30;;;1.40;;
1651;SDS011;823;49.028;8.454;2022-08-01T09:09:15;2.60;;;1.33;;
1651;SDS011;823;49.028;8.454;2022-08-01T09:14:17;1.90;;;1.40;;
1651;SDS011;823;49.028;8.454;2022-08-01T09:19:39;2.10;;;1.10;;
1651;SDS011;823;49.028;8.454;2022-08-01T09:24:41;4.73;;;1.40;;
1651;SDS011;823;49.028;8.454;2022-08-01T09:29:41;2.57;;;1.27;;
1651;SDS011;823;49.028;8.454;2022-08-01T09:34:42;2.63;;;1.50;;
1651;SDS011;823;49.028;8.454;2022-08-01T09:39:42;1.20;;;0.93;;
1651;SDS011;823;49.028;8.454;2022-08-01T09:44:45;1.93;;;1.37;;
1651;SDS011;823;49.028;8.454;2022-08-01T09:49:46;2.73;;;1.30;;
1651;SDS011;823;49.028;8.454;2022-08-01T09:54:55;2.90;;;1.60;;
1651;SDS011;823;49.028;8.454;2022-08-01T10:00:06;2.17;;;1.40;;
1651;SDS011;823;49.028;8.454;2022-08-01T10:05:17;3.27;;;1.40;;
1651;SDS011;823;49.028;8.454;2022-08-01T10:10:17;1.57;;;1.00;;
1651;SDS011;823;49.028;8.454;2022-08-01T10:15:18;2.80;;;1.50;;
1651;SDS011;823;49.028;8.454;2022-08-01T10:20:20;1.53;;;1.07;;
1651;SDS011;823;49.028;8.454;2022-08-01T10:25:24;2.93;;;1.83;;
1651;SDS011;823;49.028;8.454;2022-08-01T10:30:27;2.10;;;1.10;;
1651;SDS011;823;49.028;8.454;2022-08-01T10:35:28;1.90;;;1.47;;
1651;SDS011;823;49.028;8.454;2022-08-01T10:40:29;2.70;;;1.37;;
1651;SDS011;823;49.028;8.454;2022-08-01T10:45:30;2.60;;;1.27;;
1651;SDS011;823;49.028;8.454;2022-08-01T10:50:32;2.97;;;1.30;;
1651;SDS011;823;49.028;8.454;2022-08-01T10:55:57;2.80;;;1.40;;
1651;SDS011;823;49.028;8.454;2022-08-01T11:01:13;3.30;;;1.37;;
1651;SDS011;823;49.028;8.454;2022-08-01T11:06:17;2.73;;;1.67;;
1651;SDS011;823;49.028;8.454;2022-08-01T11:11:22;2.03;;;1.43;;
1651;SDS011;823;49.028;8.454;2022-08-01T11:16:26;6.10;;;2.20;;
1651;SDS011;823;49.028;8.454;2022-08-01T11:32:25;1.83;;;1.30;;
1651;SDS011;823;49.028;8.454;2022-08-01T11:37:27;3.13;;;1.30;;
1651;SDS011;823;49.028;8.454;2022-08-01T11:42:28;3.00;;;1.63;;
1651;SDS011;823;49.028;8.454;2022-08-01T11:47:45;4.10;;;1.70;;
1651;SDS011;823;49.028;8.454;2022-08-01T11:52:49;2.00;;;1.53;;
1651;SDS011;823;49.028;8.454;2022-08-01T11:57:58;1.80;;;1.37;;
1651;SDS011;823;49.028;8.454;2022-08-01T12:03:01;3.00;;;1.40;;
1651;SDS011;823;49.028;8.454;2022-08-01T12:08:03;2.67;;;1.50;;
1651;SDS011;823;49.028;8.454;2022-08-01T12:13:06;1.50;;;1.23;;
1651;SDS011;823;49.028;8.454;2022-08-01T12:18:06;3.73;;;1.60;;
1651;SDS011;823;49.028;8.454;2022-08-01T12:23:08;2.90;;;1.37;;
1651;SDS011;823;49.028;8.454;2022-08-01T12:28:11;1.73;;;1.23;;
1651;SDS011;823;49.028;8.454;2022-08-01T12:33:16;4.27;;;1.57;;
1651;SDS011;823;49.028;8.454;2022-08-01T12:38:19;3.53;;;1.10;;
1651;SDS011;823;49.028;8.454;2022-08-01T12:43:24;1.37;;;1.20;;
1651;SDS011;823;49.028;8.454;2022-08-01T12:48:25;2.80;;;1.23;;
1651;SDS011;823;49.028;8.454;2022-08-01T12:53:26;3.00;;;1.37;;
1651;SDS011;823;49.028;8.454;2022-08-01T12:58:30;1.50;;;1.03;;
1651;SDS011;823;49.028;8.454;2022-08-01T13:03:32;3.20;;;1.17;;
1651;SDS011;823;49.028;8.454;2022-08-01T13:08:33;1.73;;;1.40;;
1651;SDS011;823;49.028;8.454;2022-08-01T13:13:38;1.50;;;1.37;;
1651;SDS011;823;49.028;8.454;2022-08-01T13:18:49;1.73;;;1.37;;
1651;SDS011;823;49.028;8.454;2022-08-01T13:29:12;3.30;;;1.80;;
1651;SDS011;823;49.028;8.454;2022-08-01T13:34:14;1.50;;;1.20;;
1651;SDS011;823;49.028;8.454;2022-08-01T13:39:15;2.60;;;1.10;;
1651;SDS011;823;49.028;8.454;2022-08-01T13:44:34;1.27;;;1.00;;
1651;SDS011;823;49.028;8.454;2022-08-01T13:49:34;1.57;;;1.20;;
1651;SDS011;823;49.028;8.454;2022-08-01T13:54:35;1.50;;;1.17;;
1651;SDS011;823;49.028;8.454;2022-08-01T13:59:36;1.17;;;0.80;;
1651;SDS011;823;49.028;8.454;2022-08-01T14:04:36;2.80;;;1.10;;
1651;SDS011;823;49.028;8.454;2022-08-01T14:09:36;1.70;;;0.77;;
1651;SDS011;823;49.028;8.454;2022-08-01T14:14:37;1.40;;;1.00;;
1651;SDS011;823;49.028;8.454;2022-08-01T14:19:38;1.23;;;0.90;;
1651;SDS011;823;49.028;8.454;2022-08-01T14:24:38;1.42;;;1.00;;
1651;SDS011;823;49.028;8.454;2022-08-01T14:29:38;2.43;;;0.87;;
1651;SDS011;823;49.028;8.454;2022-08-01T14:34:39;2.70;;;1.23;;
1651;SDS011;823;49.028;8.454;2022-08-01T14:39:39;1.10;;;0.80;;
1651;SDS011;823;49.028;8.454;2022-08-01T14:44:39;1.80;;;0.77;;
1651;SDS011;823;49.028;8.454;2022-08-01T14:49:40;1.50;;;1.00;;
1651;SDS011;823;49.028;8.454;2022-08-01T14:54:40;1.90;;;0.90;;
1651;SDS011;823;49.028;8.454;2022-08-01T14:59:40;4.93;;;0.77;;
1651;SDS011;823;49.028;8.454;2022-08-01T15:04:41;1.35;;;0.98;;
1651;SDS011;823;49.028;8.454;2022-08-01T15:09:41;4.05;;;1.50;;
1651;SDS011;823;49.028;8.454;2022-08-01T15:14:42;2.83;;;1.07;;
1651;SDS011;823;49.028;8.454;2022-08-01T15:19:50;2.97;;;1.30;;
1651;SDS011;823;49.028;8.454;2022-08-01T15:24:53;3.10;;;1.00;;
1651;SDS011;823;49.028;8.454;2022-08-01T15:29:54;4.30;;;1.20;;
1651;SDS011;823;49.028;8.454;2022-08-01T15:34:55;2.13;;;1.20;;
1651;SDS011;823;49.028;8.454;2022-08-01T15:39:55;6.43;;;4.35;;
1651;SDS011;823;49.028;8.454;2022-08-01T15:44:56;1.53;;;1.10;;
1651;SDS011;823;49.028;8.454;2022-08-01T15:49:56;2.50;;;1.33;;
1651;SDS011;823;49.028;8.454;2022-08-01T15:54:59;1.53;;;1.03;;
1651;SDS011;823;49.028;8.454;2022-08-01T15:59:59;1.20;;;0.90;;
1651;SDS011;823;49.028;8.454;2022-08-01T16:05:00;6.85;;;1.20;;
1651;SDS011;823;49.028;8.454;2022-08-01T16:10:00;2.00;;;0.80;;
1651;SDS011;823;49.028;8.454;2022-08-01T16:15:00;1.55;;;1.10;;
1651;SDS011;823;49.028;8.454;2022-08-01T16:20:00;1.93;;;1.20;;
1651;SDS011;823;49.028;8.454;2022-08-01T16:25:02;1.17;;;1.07;;
1651;SDS011;823;49.028;8.454;2022-08-01T16:30:03;1.97;;;1.10;;
1651;SDS011;823;49.028;8.454;2022-08-01T16:35:04;1.10;;;0.90;;
1651;SDS011;823;49.028;8.454;2022-08-01T16:40:05;2.23;;;1.03;;
1651;SDS011;823;49.028;8.454;2022-08-01T16:45:06;2.50;;;0.90;;
1651;SDS011;823;49.028;8.454;2022-08-01T16:50:07;3.13;;;1.10;;
1651;SDS011;823;49.028;8.454;2022-08-01T16:55:11;1.20;;;1.00;;
1651;SDS011;823;49.028;8.454;2022-08-01T17:00:12;3.03;;;0.83;;
1651;SDS011;823;49.028;8.454;2022-08-01T17:05:13;1.20;;;0.90;;
1651;SDS011;823;49.028;8.454;2022-08-01T17:10:14;1.63;;;0.73;;
1651;SDS011;823;49.028;8.454;2022-08-01T17:15:14;1.47;;;0.80;;
1651;SDS011;823;49.028;8.454;2022-08-01T17:20:15;1.93;;;1.00;;
1651;SDS011;823;49.028;8.454;2022-08-01T17:25:15;2.53;;;0.80;;
1651;SDS011;823;49.028;8.454;2022-08-01T17:30:17;1.37;;;0.73;;
1651;SDS011;823;49.028;8.454;2022-08-01T17:35:17;1.10;;;0.70;;
1651;SDS011;823;49.028;8.454;2022-08-01T17:40:18;1.87;;;0.90;;
1651;SDS011;823;49.028;8.454;2022-08-01T17:45:18;1.10;;;0.80;;
1651;SDS011;823;49.028;8.454;2022-08-01T17:50:18;3.65;;;0.90;;
1651;SDS011;823;49.028;8.454;2022-08-01T17:55:19;1.70;;;0.80;;
1651;SDS011;823;49.028;8.454;2022-08-01T18:00:19;2.08;;;1.13;;
1651;SDS011;823;49.028;8.454;2022-08-01T18:05:19;1.20;;;0.77;;
1651;SDS011;823;49.028;8.454;2022-08-01T18:10:20;1.75;;;0.80;;
1651;SDS011;823;49.028;8.454;2022-08-01T18:15:20;1.40;;;0.70;;
1651;SDS011;823;49.028;8.454;2022-08-01T18:20:21;1.47;;;0.60;;
1651;SDS011;823;49.028;8.454;2022-08-01T18:25:21;1.10;;;0.60;;
1651;SDS011;823;49.028;8.454;2022-08-01T18:30:22;1.30;;;0.70;;
1651;SDS011;823;49.028;8.454;2022-08-01T18:35:23;1.77;;;0.90;;
1651;SDS011;823;49.028;8.454;2022-08-01T18:40:24;1.27;;;0.93;;
1651;SDS011;823;49.028;8.454;2022-08-01T18:45:25;2.50;;;0.80;;
1651;SDS011;823;49.028;8.454;2022-08-01T18:50:26;1.70;;;0.57;;
1651;SDS011;823;49.028;8.454;2022-08-01T18:55:26;1.30;;;1.03;;
1651;SDS011;823;49.028;8.454;2022-08-01T19:00:27;1.40;;;0.95;;
1651;SDS011;823;49.028;8.454;2022-08-01T19:05:27;2.40;;;1.38;;
1651;SDS011;823;49.028;8.454;2022-08-01T19:10:27;3.00;;;1.20;;
1651;SDS011;823;49.028;8.454;2022-08-01T19:15:28;1.65;;;0.90;;
1651;SDS011;823;49.028;8.454;2022-08-01T19:20:28;2.20;;;1.60;;
1651;SDS011;823;49.028;8.454;2022-08-01T19:25:29;3.07;;;1.90;;
1651;SDS011;823;49.028;8.454;2022-08-01T19:30:29;6.33;;;1.90;;
1651;SDS011;823;49.028;8.454;2022-08-01T19:35:35;2.30;;;1.40;;
1651;SDS011;823;49.028;8.454;2022-08-01T19:40:37;2.13;;;1.10;;
1651;SDS011;823;49.028;8.454;2022-08-01T19:45:39;1.50;;;0.90;;
1651;SDS011;823;49.028;8.454;2022-08-01T19:50:40;2.43;;;1.20;;
1651;SDS011;823;49.028;8.454;2022-08-01T19:55:42;1.67;;;1.23;;
1651;SDS011;823;49.028;8.454;2022-08-01T20:00:44;2.93;;;0.80;;
1651;SDS011;823;49.028;8.454;2022-08-01T20:05:47;1.67;;;0.70;;
1651;SDS011;823;49.028;8.454;2022-08-01T20:10:48;1.23;;;0.80;;
1651;SDS011;823;49.028;8.454;2022-08-01T20:15:51;2.00;;;0.77;;
1651;SDS011;823;49.028;8.454;2022-08-01T20:20:53;2.90;;;0.90;;
1651;SDS011;823;49.028;8.454;2022-08-01T20:25:54;1.80;;;1.00;;
1651;SDS011;823;49.028;8.454;2022-08-01T20:30:59;2.93;;;0.80;;
1651;SDS011;823;49.028;8.454;2022-08-01T20:36:00;2.50;;;0.80;;
1651;SDS011;823;49.028;8.454;2022-08-01T20:41:01;1.80;;;1.10;;
1651;SDS011;823;49.028;8.454;2022-08-01T20:46:03;2.73;;;1.13;;
1651;SDS011;823;49.028;8.454;2022-08-01T20:51:04;2.27;;;1.00;;
1651;SDS011;823;49.028;8.454;2022-08-01T21:01:45;2.10;;;1.40;;
1651;SDS011;823;49.028;8.454;2022-08-01T21:07:07;1.30;;;1.00;;
1651;SDS011;823;49.028;8.454;2022-08-01T21:13:01;1.13;;;0.70;;
1651;SDS011;823;49.028;8.454;2022-08-01T21:18:01;2.57;;;1.23;;
1651;SDS011;823;49.028;8.454;2022-08-01T21:23:30;1.27;;;0.70;;
1651;SDS011;823;49.028;8.454;2022-08-01T21:28:34;2.70;;;1.17;;
1651;SDS011;823;49.028;8.454;2022-08-01T21:33:35;2.03;;;1.07;;
1651;SDS011;823;49.028;8.454;2022-08-01T21:38:38;1.87;;;0.93;;
1651;SDS011;823;49.028;8.454;2022-08-01T21:43:39;1.27;;;0.80;;
1651;SDS011;823;49.028;8.454;2022-08-01T21:48:41;3.93;;;0.90;;
1651;SDS011;823;49.028;8.454;2022-08-01T21:53:49;1.27;;;0.77;;
1651;SDS011;823;49.028;8.454;2022-08-01T22:04:07;1.60;;;0.90;;
1651;SDS011;823;49.028;8.454;2022-08-01T22:09:13;1.37;;;0.60;;
1651;SDS011;823;49.028;8.454;2022-08-01T22:14:15;4.23;;;0.80;;
1651;SDS011;823;49.028;8.454;2022-08-01T22:19:18;1.20;;;1.00;;
1651;SDS011;823;49.028;8.454;2022-08-01T22:24:19;1.70;;;0.90;;
1651;SDS011;823;49.028;8.454;2022-08-01T22:29:21;1.20;;;0.70;;
1651;SDS011;823;49.028;8.454;2022-08-01T22:34:21;1.50;;;1.03;;
1651;SDS011;823;49.028;8.454;2022-08-01T22:39:21;3.33;;;0.90;;
1651;SDS011;823;49.028;8.454;2022-08-01T22:44:25;1.03;;;0.67;;
1651;SDS011;823;49.028;8.454;2022-08-01T22:49:39;1.17;;;1.00;;
1651;SDS011;823;49.028;8.454;2022-08-01T22:54:57;1.87;;;1.20;;
1651;SDS011;823;49.028;8.454;2022-08-01T23:00:05;4.47;;;0.70;;
1651;SDS011;823;49.028;8.454;2022-08-01T23:05:07;2.23;;;0.90;;
1651;SDS011;823;49.028;8.454;2022-08-01T23:10:13;1.73;;;1.00;;
1651;SDS011;823;49.028;8.454;2022-08-01T23:15:14;2.53;;;1.40;;
1651;SDS011;823;49.028;8.454;2022-08-01T23:20:15;1.40;;;0.57;;
1651;SDS011;823;49.028;8.454;2022-08-01T23:25:16;1.20;;;0.90;;
1651;SDS011;823;49.028;8.454;2022-08-01T23:30:17;2.37;;;1.00;;
1651;SDS011;823;49.028;8.454;2022-08-01T23:35:17;1.37;;;0.73;;
1651;SDS011;823;49.028;8.454;2022-08-01T23:40:18;2.50;;;0.83;;
1651;SDS011;823;49.028;8.454;2022-08-01T23:45:19;1.10;;;0.80;;
1651;SDS011;823;49.028;8.454;2022-08-01T23:50:20;1.97;;;0.80;;
1651;SDS011;823;49.028;8.454;2022-08-01T23:55:21;1.83;;;1.20;;
